Etusivu
METAR-TAF:

METAR-TAF

Lentoasemat :

Vamdrup

Kolding, Tanska

Leveyspiiri: 55-26N, Pituuspiiri: 009-20E, korkeus merenpinnasta: 44 m

Tämänhetkinen sää

Tämä raportti tehtiin 19 minuuttia sitten, kello 16.20 UTC
Tuuli 5 kn idästä
Lämpötila 4°C
Kosteus 87%
Ilmanpaine 1023 hPa

METAR: EKVD 271620Z AUTO 08005KT //// ///////// 04/02 Q1023

Aika: 17:39 (16:39 UTC)

Sääennuste

Tämä raportti tehtiin 4 tuntia ja 39 minuuttia sitten, kello 12.00 UTC
Ennuste voimassa 27. päivästä klo 12 UTC - 27. päivään klo 17 UTC
Tuuli 2 kn eri suunnista
Näkyvyys: 6000 m
Hajanaisia pilviä 3000 ft:n korkeudessa
Ajoittain
27. päivästä klo 14 UTC - 27. päivään klo 17 UTC
Näkyvyys: 0300 m
200 ft:n korkeudessa
sumuhattaroita

TAF: EKVD 271200Z 2712/2717 VRB02KT 6000 SCT030 TEMPO 2714/2717 0300 BCFG VV002

Säähavainnot ja -ennusteet yli 4000 lentoasemalta (METAR- ja TAF-raportit).

Käytössä olevat sääasemat on merkitty karttaan keltaisilla ja punaisilla pisteillä.

Aseta hiiri pisteen päälle nähdäksesi sääaseman nimen.

Klikkaa sitten nähdäksesi säähavainnot ja -ennusteet.

Kartan vaihtaminen: klikkaa mustalla rastilla varustettuja vihreitä pisteitä, niin voit zoomata sisään; viivalla varustettua vihreää pistettä, niin voit zoomata ulos tai vihreitä nuolia, niin pääset viereisille kartoille.


METAR-TAF: